createdAt,value
2022-11-14T00:00:52.570Z,89.30
2022-11-14T00:03:39.392Z,89.40
2022-11-14T00:06:25.515Z,89.20
2022-11-14T00:09:11.314Z,88.90
2022-11-14T00:11:57.173Z,88.70
2022-11-14T00:14:43.384Z,88.00
2022-11-14T00:17:29.034Z,87.20
2022-11-14T00:20:14.943Z,88.40
2022-11-14T00:23:01.277Z,89.50
2022-11-14T00:25:47.584Z,90.20
2022-11-14T00:28:33.806Z,90.30
2022-11-14T00:31:19.813Z,90.90
2022-11-14T00:34:06.332Z,91.10
2022-11-14T00:36:51.989Z,90.70
2022-11-14T00:39:37.872Z,90.30
2022-11-14T00:42:23.982Z,90.50
2022-11-14T00:45:10.354Z,90.00
2022-11-14T00:47:55.928Z,90.00
2022-11-14T00:50:42.385Z,89.90
2022-11-14T00:53:28.009Z,89.80
2022-11-14T00:56:13.849Z,89.60
2022-11-14T00:59:00.109Z,89.30
2022-11-14T01:01:45.772Z,89.20
2022-11-14T01:04:32.556Z,88.50
2022-11-14T01:07:18.530Z,88.60
2022-11-14T01:10:05.171Z,88.70
2022-11-14T01:12:52.077Z,89.00
2022-11-14T01:15:46.293Z,89.00
2022-11-14T01:18:32.933Z,88.90
2022-11-14T01:21:18.530Z,88.30
2022-11-14T01:24:05.264Z,88.50
2022-11-14T01:26:51.072Z,88.30
2022-11-14T01:29:36.674Z,89.00
2022-11-14T01:32:22.432Z,91.30
2022-11-14T01:35:08.477Z,92.30
2022-11-14T01:37:54.745Z,92.60
2022-11-14T01:40:45.710Z,92.60
2022-11-14T01:43:38.040Z,92.30
2022-11-14T01:46:26.184Z,91.60
2022-11-14T01:49:22.139Z,91.30
2022-11-14T01:52:19.601Z,91.80
2022-11-14T01:55:08.186Z,91.90
2022-11-14T01:57:54.394Z,92.30
2022-11-14T02:00:43.804Z,92.70
2022-11-14T02:03:30.159Z,92.80
2022-11-14T02:06:19.188Z,92.70
2022-11-14T02:09:07.493Z,93.90
2022-11-14T02:11:55.310Z,94.00
2022-11-14T02:14:45.440Z,93.20
2022-11-14T02:17:32.970Z,92.20
2022-11-14T02:20:23.833Z,91.00
2022-11-14T02:23:11.433Z,91.60
2022-11-14T02:25:58.179Z,92.00
2022-11-14T02:28:44.176Z,92.10
2022-11-14T02:31:30.455Z,91.60
2022-11-14T02:34:20.046Z,91.40
2022-11-14T02:37:06.156Z,91.60
2022-11-14T02:39:51.789Z,91.90
2022-11-14T02:42:37.927Z,91.50
2022-11-14T02:45:24.175Z,92.00
2022-11-14T02:48:10.370Z,92.20
2022-11-14T02:50:56.356Z,91.80
2022-11-14T02:53:42.120Z,92.00
2022-11-14T02:56:28.092Z,92.50
2022-11-14T02:59:13.833Z,92.50
2022-11-14T03:01:59.534Z,92.30
2022-11-14T03:04:45.693Z,91.80
2022-11-14T03:07:31.872Z,91.70
2022-11-14T03:10:18.157Z,91.80
2022-11-14T03:13:03.907Z,91.70
2022-11-14T03:15:51.851Z,91.60
2022-11-14T03:18:38.150Z,91.50
2022-11-14T03:21:24.515Z,91.20
2022-11-14T03:24:10.604Z,91.20
2022-11-14T03:26:56.449Z,91.10
2022-11-14T03:29:42.144Z,92.20
2022-11-14T03:32:27.978Z,93.00
2022-11-14T03:35:13.817Z,93.40
2022-11-14T03:37:59.987Z,93.60
2022-11-14T03:40:45.953Z,93.60
2022-11-14T03:43:34.149Z,92.80
2022-11-14T03:46:20.400Z,93.20
2022-11-14T03:49:06.514Z,94.60
2022-11-14T03:51:52.659Z,95.50
2022-11-14T03:54:38.990Z,96.20
2022-11-14T03:57:24.988Z,96.60
2022-11-14T04:00:11.298Z,97.00
2022-11-14T04:02:57.956Z,96.60
2022-11-14T04:05:45.548Z,96.40
2022-11-14T04:08:32.276Z,96.20
2022-11-14T04:11:19.179Z,95.50
2022-11-14T04:14:05.436Z,95.60
2022-11-14T04:16:51.391Z,95.70
2022-11-14T04:19:37.147Z,95.00
2022-11-14T04:22:23.971Z,94.50
2022-11-14T04:25:10.323Z,94.50
2022-11-14T04:27:56.558Z,94.20
2022-11-14T04:30:46.424Z,93.90
2022-11-14T04:33:32.786Z,94.60
2022-11-14T04:36:18.658Z,94.60
2022-11-14T04:39:04.596Z,93.90
2022-11-14T04:41:50.277Z,93.80
2022-11-14T04:44:36.035Z,93.80
2022-11-14T04:47:21.896Z,93.40
2022-11-14T04:50:08.230Z,92.90
2022-11-14T04:52:54.463Z,92.70
2022-11-14T04:55:40.457Z,92.00
2022-11-14T04:58:26.967Z,91.80
2022-11-14T05:01:14.811Z,92.10
2022-11-14T05:04:00.759Z,92.10
2022-11-14T05:06:46.690Z,92.10
2022-11-14T05:09:32.578Z,92.30
2022-11-14T05:12:18.793Z,93.20
2022-11-14T05:15:05.863Z,93.70
2022-11-14T05:17:51.833Z,93.60
2022-11-14T05:20:37.537Z,93.40
2022-11-14T05:23:27.356Z,94.00
2022-11-14T05:26:16.096Z,94.30
2022-11-14T05:29:02.108Z,93.70
2022-11-14T05:31:48.137Z,93.50
2022-11-14T05:34:34.072Z,93.20
2022-11-14T05:37:20.395Z,93.00
2022-11-14T05:40:08.137Z,92.70
2022-11-14T05:42:57.071Z,92.80
2022-11-14T05:45:45.298Z,92.60
2022-11-14T05:48:32.100Z,92.70
2022-11-14T05:51:18.234Z,93.50
2022-11-14T05:54:04.024Z,93.40
2022-11-14T05:56:49.698Z,93.20
2022-11-14T05:59:35.376Z,93.30
2022-11-14T06:02:21.263Z,93.10
2022-11-14T06:05:07.712Z,93.20
2022-11-14T06:07:57.819Z,92.90
2022-11-14T06:10:43.799Z,92.90
2022-11-14T06:13:29.376Z,94.00
2022-11-14T06:16:17.955Z,94.60
2022-11-14T06:19:05.536Z,94.10
2022-11-14T06:21:51.602Z,93.10
2022-11-14T06:24:37.412Z,92.30
2022-11-14T06:27:23.902Z,91.60
2022-11-14T06:30:10.291Z,91.00
2022-11-14T06:32:59.462Z,90.70
2022-11-14T06:35:45.465Z,91.00
2022-11-14T06:38:33.132Z,91.20
2022-11-14T06:41:23.842Z,91.20
2022-11-14T06:44:10.582Z,90.90
2022-11-14T06:46:58.258Z,91.50
2022-11-14T06:49:44.206Z,89.00
2022-11-14T06:52:31.044Z,88.90
2022-11-14T06:55:20.881Z,89.00
2022-11-14T06:58:09.985Z,87.90
2022-11-14T07:00:57.018Z,88.00
2022-11-14T07:03:43.940Z,88.30
2022-11-14T07:06:31.517Z,89.90
2022-11-14T07:09:17.516Z,90.50
2022-11-14T07:12:03.331Z,90.50
2022-11-14T07:14:49.273Z,89.40
2022-11-14T07:17:36.469Z,89.60
2022-11-14T07:20:22.761Z,90.20
2022-11-14T07:23:08.679Z,89.00
2022-11-14T07:25:54.390Z,87.90
2022-11-14T07:28:42.304Z,88.80
2022-11-14T07:31:28.802Z,87.00
2022-11-14T07:34:15.591Z,90.10
2022-11-14T07:37:01.221Z,90.70
2022-11-14T07:39:47.085Z,90.90
2022-11-14T07:42:32.880Z,89.30
2022-11-14T07:45:20.192Z,88.20
2022-11-14T07:48:06.521Z,87.90
2022-11-14T07:50:52.624Z,86.50
2022-11-14T07:53:38.610Z,86.20
2022-11-14T07:56:26.605Z,87.20
2022-11-14T07:59:12.719Z,87.30
2022-11-14T08:01:58.858Z,87.20
2022-11-14T08:04:44.594Z,87.90
2022-11-14T08:07:30.462Z,87.50
2022-11-14T08:10:17.887Z,88.50
2022-11-14T08:16:14.056Z,89.70
2022-11-14T08:19:01.003Z,89.80
2022-11-14T08:21:46.885Z,88.90
2022-11-14T08:24:32.618Z,89.30
2022-11-14T08:27:18.354Z,90.20
2022-11-14T08:30:06.350Z,90.40
2022-11-14T08:32:52.549Z,90.70
2022-11-14T08:35:38.821Z,90.90
2022-11-14T08:38:24.653Z,91.20
2022-11-14T08:41:11.225Z,91.40
2022-11-14T08:43:57.180Z,91.60
2022-11-14T08:46:43.247Z,91.30
2022-11-14T08:49:28.827Z,91.80
2022-11-14T08:52:16.854Z,92.00
2022-11-14T08:55:05.116Z,92.40
2022-11-14T08:57:53.619Z,91.70
2022-11-14T09:00:42.551Z,91.60
2022-11-14T09:03:28.562Z,90.60
2022-11-14T09:06:14.321Z,90.10
2022-11-14T09:09:00.109Z,90.10
2022-11-14T09:11:46.018Z,90.20
2022-11-14T09:14:31.827Z,89.60
2022-11-14T09:17:17.494Z,90.40
2022-11-14T09:20:07.855Z,90.30
2022-11-14T09:22:54.082Z,89.60
2022-11-14T09:25:40.257Z,90.40
2022-11-14T09:28:26.855Z,90.80
2022-11-14T09:31:13.928Z,90.50
2022-11-14T09:33:59.939Z,90.20
2022-11-14T09:36:46.821Z,90.30
2022-11-14T09:39:33.472Z,90.20
2022-11-14T09:42:48.122Z,90.20
2022-11-14T09:45:42.097Z,90.60
2022-11-14T09:48:32.606Z,90.60
2022-11-14T09:51:24.769Z,90.50
2022-11-14T09:54:26.870Z,90.40
2022-11-14T09:57:20.373Z,90.60
2022-11-14T10:00:21.016Z,91.20
2022-11-14T10:03:33.315Z,89.40
2022-11-14T10:06:28.457Z,87.70
2022-11-14T10:09:15.035Z,88.30
2022-11-14T10:12:21.637Z,85.90
2022-11-14T10:15:27.470Z,85.50
2022-11-14T10:18:39.058Z,84.80
2022-11-14T10:21:46.351Z,86.60
2022-11-14T10:24:41.436Z,84.90
2022-11-14T10:27:42.543Z,82.80
2022-11-14T10:30:45.069Z,82.90
2022-11-14T10:33:49.146Z,85.00
2022-11-14T10:36:52.799Z,85.00
2022-11-14T10:39:52.665Z,80.70
2022-11-14T10:42:41.829Z,80.70
2022-11-14T10:45:40.476Z,80.90
2022-11-14T10:48:40.545Z,80.80
2022-11-14T10:51:41.515Z,80.90
2022-11-14T10:54:41.361Z,79.40
2022-11-14T10:57:28.939Z,76.00
2022-11-14T11:00:18.147Z,78.40
2022-11-14T11:03:04.305Z,78.00
2022-11-14T11:05:57.031Z,76.20
2022-11-14T11:09:02.433Z,77.50
2022-11-14T11:12:01.955Z,75.00
2022-11-14T11:14:51.647Z,76.00
2022-11-14T11:17:42.985Z,77.80
2022-11-14T11:20:41.231Z,77.80
2022-11-14T11:23:28.559Z,78.30
2022-11-14T11:26:22.373Z,79.00
2022-11-14T11:29:17.191Z,77.60
2022-11-14T11:32:03.409Z,76.80
2022-11-14T11:34:49.801Z,73.30
2022-11-14T11:37:59.367Z,74.80
2022-11-14T11:40:48.620Z,71.00
2022-11-14T11:43:55.540Z,72.40
2022-11-14T11:46:52.938Z,69.70
2022-11-14T11:49:53.476Z,69.50
2022-11-14T11:52:49.166Z,70.90
2022-11-14T11:55:46.671Z,72.00
2022-11-14T11:58:55.790Z,71.60
2022-11-14T12:01:43.616Z,73.20
2022-11-14T12:04:30.413Z,69.70
2022-11-14T12:07:37.814Z,69.80
2022-11-14T12:10:38.193Z,69.80
2022-11-14T12:13:53.505Z,70.20
2022-11-14T12:16:57.349Z,70.80
2022-11-14T12:19:49.828Z,71.20
2022-11-14T12:22:44.121Z,69.80
2022-11-14T12:25:44.967Z,70.30
2022-11-14T12:28:59.293Z,73.10
2022-11-14T12:31:46.380Z,70.60
2022-11-14T12:34:44.098Z,72.70
2022-11-14T12:37:44.040Z,74.00
2022-11-14T12:40:33.886Z,72.50
2022-11-14T12:43:37.540Z,72.30
2022-11-14T12:46:24.070Z,69.00
2022-11-14T12:49:50.228Z,69.00
2022-11-14T12:52:45.494Z,70.40
2022-11-14T12:55:31.337Z,67.90
2022-11-14T12:58:57.290Z,68.40
2022-11-14T13:02:22.507Z,68.10
2022-11-14T13:05:22.481Z,70.90
2022-11-14T13:08:28.916Z,68.40
2022-11-14T13:12:00.227Z,71.10
2022-11-14T13:15:09.456Z,75.10
2022-11-14T13:18:42.244Z,77.10
2022-11-14T13:21:48.499Z,78.30
2022-11-14T13:24:58.902Z,79.60
2022-11-14T13:28:06.568Z,80.10
2022-11-14T13:31:16.081Z,80.50
2022-11-14T13:34:22.516Z,79.30
2022-11-14T13:37:31.561Z,78.80
2022-11-14T13:40:20.033Z,77.80
2022-11-14T13:43:12.969Z,76.40
2022-11-14T13:46:07.295Z,76.20
2022-11-14T13:48:59.122Z,76.30
2022-11-14T13:51:45.164Z,76.10
2022-11-14T13:54:31.712Z,74.60
2022-11-14T13:57:53.039Z,72.00
2022-11-14T14:01:31.165Z,70.00
2022-11-14T14:04:26.040Z,71.50
2022-11-14T14:07:24.476Z,72.80
2022-11-14T14:10:20.955Z,73.40
2022-11-14T14:13:41.040Z,77.30
2022-11-14T14:16:44.714Z,78.70
2022-11-14T14:19:58.753Z,80.00
2022-11-14T14:23:17.119Z,81.10
2022-11-14T14:26:55.904Z,81.30
2022-11-14T14:30:21.231Z,82.00
2022-11-14T14:33:15.430Z,84.00
2022-11-14T14:36:01.344Z,82.00
2022-11-14T14:38:47.928Z,82.40
2022-11-14T14:41:35.281Z,81.20
2022-11-14T14:44:25.828Z,81.00
2022-11-14T14:47:41.230Z,80.50
2022-11-14T14:50:51.535Z,80.40
2022-11-14T14:53:38.875Z,80.00
2022-11-14T14:56:26.117Z,79.80
2022-11-14T14:59:21.643Z,80.00
2022-11-14T15:02:16.449Z,80.20
2022-11-14T15:05:04.599Z,81.00
2022-11-14T15:07:52.818Z,80.90
2022-11-14T15:10:40.031Z,81.90
2022-11-14T15:13:28.464Z,83.20
2022-11-14T15:16:15.558Z,84.40
2022-11-14T15:19:02.053Z,85.40
2022-11-14T15:22:11.011Z,86.60
2022-11-14T15:25:11.117Z,87.10
2022-11-14T15:28:00.909Z,87.00
2022-11-14T15:31:17.514Z,86.80
2022-11-14T15:34:30.520Z,85.80
2022-11-14T15:37:19.218Z,85.20
2022-11-14T15:40:35.473Z,84.80
2022-11-14T15:43:43.070Z,85.30
2022-11-14T15:46:39.448Z,85.10
2022-11-14T15:49:28.396Z,85.10
2022-11-14T15:52:29.721Z,85.30
2022-11-14T15:55:19.182Z,85.20
2022-11-14T16:01:17.101Z,85.10
2022-11-14T16:04:03.306Z,84.60
2022-11-14T16:06:49.255Z,88.10
2022-11-14T16:09:35.417Z,89.40
2022-11-14T16:12:21.549Z,89.50
2022-11-14T16:15:08.575Z,88.60
2022-11-14T16:17:54.489Z,91.10
2022-11-14T16:20:42.155Z,92.30
2022-11-14T16:23:28.282Z,91.80
2022-11-14T16:26:14.212Z,91.50
2022-11-14T16:29:00.132Z,91.80
2022-11-14T16:31:46.110Z,89.90
2022-11-14T16:34:31.869Z,91.50
2022-11-14T16:37:19.411Z,92.80
2022-11-14T16:40:07.712Z,92.50
2022-11-14T16:42:57.636Z,93.10
2022-11-14T16:45:45.881Z,91.90
2022-11-14T16:48:32.669Z,90.60
2022-11-14T16:51:46.316Z,93.10
2022-11-14T16:54:25.235Z,92.90
2022-11-14T16:57:11.420Z,92.20
2022-11-14T16:59:59.157Z,91.30
2022-11-14T17:02:46.608Z,90.60
2022-11-14T17:05:44.304Z,89.80
2022-11-14T17:08:30.437Z,90.40
2022-11-14T17:11:16.249Z,90.00
2022-11-14T17:14:02.413Z,89.60
2022-11-14T17:16:48.387Z,89.50
2022-11-14T17:19:34.246Z,89.20
2022-11-14T17:22:20.253Z,88.70
2022-11-14T17:25:06.679Z,85.90
2022-11-14T17:27:52.607Z,87.30
2022-11-14T17:30:46.134Z,90.10
2022-11-14T17:33:32.283Z,93.20
2022-11-14T17:36:19.148Z,93.50
2022-11-14T17:39:04.846Z,93.90
2022-11-14T17:41:50.639Z,94.00
2022-11-14T17:44:36.377Z,93.60
2022-11-14T17:47:22.115Z,92.70
2022-11-14T17:50:08.003Z,93.00
2022-11-14T17:52:54.247Z,91.80
2022-11-14T17:55:40.269Z,92.50
2022-11-14T17:58:29.200Z,92.90
2022-11-14T18:01:18.047Z,92.00
2022-11-14T18:04:06.424Z,91.10
2022-11-14T18:06:53.301Z,91.70
2022-11-14T18:09:40.329Z,93.20
2022-11-14T18:12:26.231Z,94.60
2022-11-14T18:15:15.675Z,95.00
2022-11-14T18:18:01.430Z,94.80
2022-11-14T18:20:47.763Z,94.70
2022-11-14T18:23:35.374Z,94.40
2022-11-14T18:26:27.248Z,94.30
2022-11-14T18:29:15.690Z,93.60
2022-11-14T18:32:01.693Z,92.40
2022-11-14T18:34:47.387Z,92.30
2022-11-14T18:37:38.149Z,91.90
2022-11-14T18:40:24.291Z,91.50
2022-11-14T18:43:11.433Z,90.90
2022-11-14T18:46:04.184Z,91.40
2022-11-14T18:48:54.166Z,92.10
2022-11-14T18:51:42.577Z,92.80
2022-11-14T18:54:28.520Z,93.00
2022-11-14T18:57:14.479Z,93.10
2022-11-14T19:00:00.284Z,92.70
2022-11-14T19:02:50.753Z,92.60
2022-11-14T19:05:37.054Z,92.40
2022-11-14T19:08:27.077Z,93.20
2022-11-14T19:11:35.769Z,93.40
2022-11-14T19:14:22.502Z,93.10
2022-11-14T19:17:08.860Z,93.10
2022-11-14T19:19:54.827Z,92.80
2022-11-14T19:22:41.735Z,92.50
2022-11-14T19:25:27.404Z,92.10
2022-11-14T19:28:13.645Z,91.40
2022-11-14T19:31:03.377Z,91.60
2022-11-14T19:33:49.687Z,91.60
2022-11-14T19:36:58.849Z,92.10
2022-11-14T19:39:42.066Z,92.50
2022-11-14T19:42:28.039Z,92.60
2022-11-14T19:45:13.855Z,93.10
2022-11-14T19:47:59.894Z,92.60
2022-11-14T19:50:45.740Z,92.40
2022-11-14T19:53:34.848Z,93.40
2022-11-14T19:56:21.783Z,95.00
2022-11-14T19:59:13.800Z,95.40
2022-11-14T20:02:01.042Z,95.30
2022-11-14T20:04:50.358Z,94.80
2022-11-14T20:07:36.475Z,94.40
2022-11-14T20:10:22.452Z,94.00
2022-11-14T20:13:08.337Z,93.90
2022-11-14T20:15:55.720Z,93.40
2022-11-14T20:18:43.296Z,92.80
2022-11-14T20:21:31.542Z,91.70
2022-11-14T20:24:21.669Z,91.50
2022-11-14T20:27:07.276Z,91.20
2022-11-14T20:29:53.689Z,91.10
2022-11-14T20:32:39.436Z,90.30
2022-11-14T20:35:25.174Z,90.10
2022-11-14T20:38:12.028Z,90.10
2022-11-14T20:40:59.062Z,91.90
2022-11-14T20:43:45.262Z,92.90
2022-11-14T20:46:31.072Z,93.70
2022-11-14T20:49:17.020Z,93.90
2022-11-14T20:52:05.006Z,94.40
2022-11-14T20:54:50.801Z,94.70
2022-11-14T20:57:37.211Z,94.00
2022-11-14T21:00:23.522Z,93.20
2022-11-14T21:03:10.810Z,93.20
2022-11-14T21:05:56.940Z,93.50
2022-11-14T21:08:43.996Z,90.70
2022-11-14T21:11:29.948Z,91.60
2022-11-14T21:14:15.714Z,92.50
2022-11-14T21:17:01.396Z,93.10
2022-11-14T21:19:47.155Z,90.50
2022-11-14T21:22:33.287Z,92.50
2022-11-14T21:25:18.953Z,93.20
2022-11-14T21:28:04.741Z,94.90
2022-11-14T21:30:54.666Z,96.00
2022-11-14T21:33:42.109Z,96.20
2022-11-14T21:36:46.085Z,96.60
2022-11-14T21:39:32.364Z,96.40
2022-11-14T21:42:18.879Z,96.10
2022-11-14T21:45:06.230Z,95.70
2022-11-14T21:47:52.146Z,94.70
2022-11-14T21:50:37.821Z,94.90
2022-11-14T21:53:23.845Z,95.00
2022-11-14T21:56:18.097Z,95.20
2022-11-14T21:59:14.581Z,95.20
2022-11-14T22:02:30.151Z,94.90
2022-11-14T22:05:16.114Z,94.50
2022-11-14T22:08:01.927Z,94.10
2022-11-14T22:10:47.658Z,93.60
2022-11-14T22:13:33.807Z,93.90
2022-11-14T22:16:20.036Z,94.40
2022-11-14T22:19:06.465Z,94.90
2022-11-14T22:21:52.437Z,95.30
2022-11-14T22:24:38.507Z,95.50
2022-11-14T22:27:24.503Z,95.50
2022-11-14T22:30:12.004Z,95.30
2022-11-14T22:33:00.437Z,94.50
2022-11-14T22:35:46.255Z,95.50
2022-11-14T22:38:33.578Z,96.00
2022-11-14T22:41:24.358Z,95.80
2022-11-14T22:44:13.875Z,95.50
2022-11-14T22:46:59.739Z,95.10
2022-11-14T22:49:45.579Z,94.50
2022-11-14T22:52:31.415Z,93.20
2022-11-14T22:55:18.338Z,93.80
2022-11-14T22:58:04.443Z,94.00
2022-11-14T23:00:54.290Z,93.80
2022-11-14T23:03:41.802Z,94.00
2022-11-14T23:06:29.029Z,93.80
2022-11-14T23:09:15.078Z,93.70
2022-11-14T23:12:01.189Z,93.30
2022-11-14T23:14:46.901Z,93.10
2022-11-14T23:17:32.741Z,92.80
2022-11-14T23:20:19.847Z,92.70
2022-11-14T23:23:05.516Z,92.50
2022-11-14T23:25:51.152Z,92.40
2022-11-14T23:28:37.530Z,92.30
2022-11-14T23:31:24.906Z,92.30
2022-11-14T23:34:11.943Z,92.60
2022-11-14T23:36:57.740Z,92.70
2022-11-14T23:39:43.536Z,92.40
2022-11-14T23:42:29.690Z,92.30
2022-11-14T23:45:15.260Z,91.80
2022-11-14T23:48:01.489Z,92.00
2022-11-14T23:50:52.310Z,92.00
2022-11-14T23:53:38.013Z,92.10
2022-11-14T23:56:23.851Z,92.30
2022-11-14T23:59:09.789Z,92.50
